Time;durP1;ratioP1;P1;durP2;ratioP2;P2;SDS_P1;SDS_P2;PMS_P1;PMS_P2;Temp;Humidity;BMP_temperature;BMP_pressure;BME280_temperature;BME280_humidity;BME280_pressure;Samples;Min_cycle;Max_cycle;Signal;HPM_P1;HPM_P2
2022/07/13 00:01:07;;;;;;;10.90;7.40;;;;;;;18.95;100.00;102183.31;5051252;28;20033;-78
2022/07/13 00:03:33;;;;;;;8.73;6.38;;;;;;;18.95;100.00;102182.47;5051188;28;20465;-78
2022/07/13 00:05:58;;;;;;;8.68;6.70;;;;;;;18.97;100.00;102181.31;5052769;28;20486;-79
2022/07/13 00:08:24;;;;;;;7.55;6.13;;;;;;;18.96;100.00;102178.75;5053274;28;20129;-77
2022/07/13 00:10:49;;;;;;;9.77;6.53;;;;;;;18.93;100.00;102179.09;5052690;28;20441;-77
2022/07/13 00:13:14;;;;;;;9.75;5.97;;;;;;;18.90;100.00;102185.66;5050906;28;20041;-77
2022/07/13 00:15:40;;;;;;;7.55;6.57;;;;;;;18.85;100.00;102185.25;5052232;28;20028;-77
2022/07/13 00:18:05;;;;;;;6.45;5.82;;;;;;;18.78;100.00;102178.81;5050544;28;20125;-78
2022/07/13 00:20:31;;;;;;;6.43;5.82;;;;;;;18.72;100.00;102171.38;5052424;28;20040;-77
2022/07/13 00:22:56;;;;;;;9.77;5.80;;;;;;;18.65;100.00;102174.72;5051002;28;20191;-77
2022/07/13 00:25:21;;;;;;;7.88;6.00;;;;;;;18.59;100.00;102175.34;5051256;28;20086;-77
2022/07/13 00:27:47;;;;;;;6.40;5.78;;;;;;;18.54;100.00;102171.44;5051281;28;20040;-77
2022/07/13 00:30:12;;;;;;;7.82;5.80;;;;;;;18.49;100.00;102174.63;5050876;28;20041;-78
2022/07/13 00:32:38;;;;;;;9.63;6.13;;;;;;;18.44;100.00;102175.09;5052284;28;20037;-77
2022/07/13 00:35:04;;;;;;;10.15;6.50;;;;;;;18.37;100.00;102170.50;5052183;28;20033;-78
2022/07/13 00:37:30;;;;;;;8.32;6.18;;;;;;;18.33;100.00;102159.19;5052156;28;20025;-78
2022/07/13 00:39:55;;;;;;;8.88;5.88;;;;;;;18.29;100.00;102164.06;5052455;28;20044;-78
2022/07/13 00:42:20;;;;;;;8.27;5.50;;;;;;;18.25;100.00;102159.97;5051990;28;20040;-77
2022/07/13 00:44:46;;;;;;;6.35;5.50;;;;;;;18.23;100.00;102158.47;5051181;28;20067;-77
2022/07/13 00:47:12;;;;;;;7.60;5.95;;;;;;;18.22;100.00;102152.22;5050451;28;20465;-77
2022/07/13 00:49:38;;;;;;;7.75;5.60;;;;;;;18.25;100.00;102146.50;5050851;28;20037;-77
2022/07/13 00:52:03;;;;;;;6.38;5.75;;;;;;;18.28;100.00;102143.50;5052089;28;20036;-81
2022/07/13 00:54:29;;;;;;;6.97;5.85;;;;;;;18.34;100.00;102136.63;5051514;28;20082;-77
2022/07/13 00:56:59;;;;;;;7.28;5.88;;;;;;;18.42;100.00;102139.41;5051103;28;20075;-77
2022/07/13 00:59:25;;;;;;;6.25;5.47;;;;;;;18.53;100.00;102137.44;5051574;28;20052;-77
2022/07/13 01:01:50;;;;;;;11.52;6.28;;;;;;;18.61;100.00;102124.81;5050317;28;20037;-77
2022/07/13 01:04:16;;;;;;;6.85;5.50;;;;;;;18.67;100.00;102118.81;5051767;28;20029;-77
2022/07/13 01:06:41;;;;;;;11.07;5.80;;;;;;;18.76;100.00;102124.22;5049635;28;20102;-77
2022/07/13 01:09:07;;;;;;;7.38;5.97;;;;;;;18.85;100.00;102123.25;5051173;28;20033;-78
2022/07/13 01:11:33;;;;;;;9.70;5.55;;;;;;;18.91;100.00;102122.63;5051497;28;20422;-77
2022/07/13 01:13:59;;;;;;;11.43;5.72;;;;;;;18.98;100.00;102125.53;5050431;28;20064;-77
2022/07/13 01:16:25;;;;;;;7.20;5.65;;;;;;;19.03;99.44;102118.63;5049782;28;20098;-77
2022/07/13 01:18:51;;;;;;;9.93;5.95;;;;;;;19.08;97.92;102122.66;5051374;28;20033;-77
2022/07/13 01:21:18;;;;;;;10.10;5.88;;;;;;;19.11;97.71;102116.94;5051455;28;20185;-77
2022/07/13 01:23:43;;;;;;;5.80;5.20;;;;;;;19.14;97.21;102124.75;5049390;28;20378;-77
2022/07/13 01:26:11;;;;;;;7.38;5.60;;;;;;;19.16;97.10;102123.53;5051300;28;20106;-79
2022/07/13 01:28:36;;;;;;;7.30;5.30;;;;;;;19.16;96.75;102128.09;5051350;28;20044;-77
2022/07/13 01:31:02;;;;;;;7.15;5.68;;;;;;;19.17;96.41;102127.09;5050967;28;20024;-77
2022/07/13 01:33:27;;;;;;;6.60;5.78;;;;;;;19.19;96.25;102130.47;5049854;28;20432;-77
2022/07/13 01:35:52;;;;;;;7.45;5.25;;;;;;;19.19;96.54;102130.47;5049619;28;20051;-78
2022/07/13 01:38:18;;;;;;;8.70;5.40;;;;;;;19.19;96.65;102119.69;5050755;28;20442;-78
2022/07/13 01:40:43;;;;;;;6.70;5.07;;;;;;;19.18;96.51;102129.63;5051155;28;20025;-77
2022/07/13 01:43:09;;;;;;;6.55;5.03;;;;;;;19.18;95.60;102123.38;5050970;28;20043;-77
2022/07/13 01:45:34;;;;;;;11.90;5.18;;;;;;;19.20;96.23;102122.22;5049011;28;20140;-77
2022/07/13 01:47:59;;;;;;;9.73;5.43;;;;;;;19.20;96.33;102113.28;5049350;28;20468;-77
2022/07/13 01:50:27;;;;;;;6.60;5.30;;;;;;;19.20;95.62;102113.28;5049135;28;20086;-77
2022/07/13 01:52:53;;;;;;;7.57;5.25;;;;;;;19.18;95.05;102105.34;5049194;28;20033;-77
2022/07/13 01:55:18;;;;;;;5.88;5.10;;;;;;;19.19;95.41;102109.72;5049184;28;20028;-77
2022/07/13 01:57:44;;;;;;;7.32;5.20;;;;;;;19.19;95.98;102106.19;5049429;28;20341;-77
2022/07/13 02:00:16;;;;;;;6.45;5.40;;;;;;;19.17;95.10;102100.13;5050959;28;20033;-77
2022/07/13 02:02:42;;;;;;;6.68;5.20;;;;;;;19.17;94.59;102095.56;5050370;28;20125;-77
2022/07/13 02:05:09;;;;;;;6.40;4.82;;;;;;;19.17;94.26;102097.44;5049271;28;20139;-77
2022/07/13 02:07:35;;;;;;;5.68;4.88;;;;;;;19.15;94.29;102094.03;5048692;28;20063;-77
2022/07/13 02:10:00;;;;;;;9.30;4.90;;;;;;;19.14;94.89;102095.06;5048825;28;20418;-78
2022/07/13 02:12:25;;;;;;;10.27;5.25;;;;;;;19.11;95.80;102096.22;5048996;28;20492;-78
2022/07/13 02:14:51;;;;;;;11.18;4.72;;;;;;;19.08;95.94;102093.88;5050460;28;20036;-77
2022/07/13 02:17:16;;;;;;;7.90;5.25;;;;;;;19.03;95.44;102093.50;5032378;28;20047;-78
2022/07/13 02:19:42;;;;;;;7.35;4.82;;;;;;;19.00;96.28;102093.81;5048761;28;20120;-78
2022/07/13 02:22:07;;;;;;;9.45;5.22;;;;;;;18.97;97.16;102088.75;5050080;28;20342;-77
2022/07/13 02:24:34;;;;;;;6.03;4.88;;;;;;;18.93;97.11;102090.97;5048911;28;20350;-77
2022/07/13 02:26:59;;;;;;;7.03;4.72;;;;;;;18.92;96.84;102085.72;5048882;28;20132;-77
2022/07/13 02:29:24;;;;;;;9.13;4.97;;;;;;;18.91;96.76;102086.72;5050028;28;20135;-77
2022/07/13 02:31:50;;;;;;;6.05;4.28;;;;;;;18.90;96.67;102087.72;5048972;28;20037;-78
2022/07/13 02:34:15;;;;;;;9.45;4.82;;;;;;;18.90;96.44;102090.44;5050141;28;20125;-77
2022/07/13 02:36:43;;;;;;;6.95;4.45;;;;;;;18.92;96.27;102086.56;5048784;28;20112;-78
2022/07/13 02:39:09;;;;;;;6.95;4.60;;;;;;;18.94;95.79;102084.53;5048513;28;20033;-78
2022/07/13 02:41:34;;;;;;;8.35;5.13;;;;;;;18.96;95.36;102082.53;5031897;28;20029;-78
2022/07/13 02:44:00;;;;;;;6.38;4.60;;;;;;;18.98;96.06;102085.06;5050082;28;20029;-78
2022/07/13 02:46:25;;;;;;;8.32;4.47;;;;;;;18.99;96.47;102082.22;5049575;28;20049;-78
2022/07/13 02:48:51;;;;;;;10.57;5.13;;;;;;;18.98;96.56;102083.22;5049867;28;20068;-78
2022/07/13 02:51:17;;;;;;;6.30;4.68;;;;;;;18.99;95.97;102086.78;5050103;28;20521;-78
2022/07/13 02:53:42;;;;;;;5.40;4.53;;;;;;;18.98;95.39;102080.50;5050030;28;20062;-78
2022/07/13 02:56:08;;;;;;;6.55;4.43;;;;;;;18.99;95.16;102068.72;5048730;28;20037;-78
2022/07/13 02:58:33;;;;;;;8.73;5.05;;;;;;;18.99;94.67;102062.50;5049289;28;20128;-78
2022/07/13 03:00:59;;;;;;;11.55;4.60;;;;;;;18.97;93.81;102068.06;5049975;28;20032;-78
2022/07/13 03:03:24;;;;;;;11.48;5.10;;;;;;;18.96;93.74;102065.50;5050155;28;20029;-79
2022/07/13 03:05:50;;;;;;;6.70;4.60;;;;;;;18.95;94.19;102067.34;5048419;28;20119;-78
2022/07/13 03:08:15;;;;;;;4.88;4.20;;;;;;;18.94;94.34;102065.66;5048356;28;20456;-78
2022/07/13 03:10:40;;;;;;;6.15;4.30;;;;;;;18.91;93.96;102057.91;5050006;28;20036;-78
2022/07/13 03:13:06;;;;;;;7.32;4.20;;;;;;;18.89;93.36;102056.41;5048404;28;20445;-78
2022/07/13 03:15:32;;;;;;;6.70;3.92;;;;;;;18.85;91.94;102051.34;5049597;28;20086;-78
2022/07/13 03:17:57;;;;;;;6.32;4.28;;;;;;;18.85;91.42;102053.13;5048268;28;20063;-78
2022/07/13 03:20:23;;;;;;;4.57;4.10;;;;;;;18.84;91.74;102051.47;5050467;28;20064;-79
2022/07/13 03:22:49;;;;;;;6.00;4.15;;;;;;;18.83;91.85;102060.56;5052200;28;20119;-78
2022/07/13 03:25:14;;;;;;;9.88;4.05;;;;;;;18.81;92.37;102060.72;5053884;28;20056;-78
2022/07/13 03:27:40;;;;;;;6.88;4.00;;;;;;;18.78;92.52;102052.97;5053877;28;20029;-79
2022/07/13 03:30:06;;;;;;;4.97;4.13;;;;;;;18.78;92.01;102054.78;5053907;28;20130;-78
2022/07/13 03:32:32;;;;;;;5.72;4.15;;;;;;;18.78;91.70;102054.78;5053458;28;20445;-78
2022/07/13 03:34:57;;;;;;;8.70;4.00;;;;;;;18.79;91.70;102046.53;5053328;28;20045;-78
2022/07/13 03:37:23;;;;;;;5.38;3.70;;;;;;;18.82;91.63;102050.78;5053357;28;20029;-78
2022/07/13 03:39:48;;;;;;;7.30;3.83;;;;;;;18.82;91.40;102050.78;5052925;28;20044;-79
2022/07/13 03:42:14;;;;;;;5.38;4.07;;;;;;;18.82;91.22;102053.47;5053145;28;20042;-78
2022/07/13 03:44:39;;;;;;;6.88;4.10;;;;;;;18.83;91.84;102056.00;5051463;28;20361;-78
2022/07/13 03:47:04;;;;;;;5.45;4.03;;;;;;;18.86;93.23;102057.56;5051327;28;20370;-78
2022/07/13 03:49:30;;;;;;;8.50;4.18;;;;;;;18.87;92.65;102056.56;5053338;28;20049;-78
2022/07/13 03:51:55;;;;;;;4.50;3.90;;;;;;;18.90;91.26;102063.47;5052913;28;20446;-77
2022/07/13 03:54:21;;;;;;;3.75;3.35;;;;;;;18.93;91.16;102055.03;5035072;28;20048;-78
2022/07/13 03:56:47;;;;;;;5.78;4.03;;;;;;;18.94;90.81;102046.78;5053056;28;20029;-78
2022/07/13 03:59:13;;;;;;;5.22;4.05;;;;;;;18.96;90.65;102054.72;5052883;28;20499;-78
2022/07/13 04:01:38;;;;;;;7.95;4.72;;;;;;;18.98;91.49;102053.53;5053055;28;20155;-78
2022/07/13 04:04:05;;;;;;;8.77;4.03;;;;;;;18.98;91.44;102056.25;5053288;28;20322;-78
2022/07/13 04:06:30;;;;;;;7.75;4.32;;;;;;;19.00;91.42;102056.06;5052589;28;20037;-79
2022/07/13 04:08:56;;;;;;;8.55;3.90;;;;;;;19.02;91.49;102045.97;5052807;28;20094;-78
2022/07/13 04:11:21;;;;;;;9.93;4.43;;;;;;;19.05;91.47;102055.56;5051379;28;20039;-78
2022/07/13 04:13:47;;;;;;;6.47;4.13;;;;;;;19.09;90.29;102059.63;5052730;28;20121;-78
2022/07/13 04:16:12;;;;;;;10.93;3.90;;;;;;;19.17;87.37;102049.72;5053122;28;20056;-78
2022/07/13 04:18:37;;;;;;;9.52;3.85;;;;;;;19.32;84.54;102043.66;5050873;28;20040;-78
2022/07/13 04:21:03;;;;;;;4.78;3.30;;;;;;;19.52;81.19;102038.75;5052611;28;20454;-78
2022/07/13 04:23:30;;;;;;;8.63;3.47;;;;;;;19.73;78.48;102049.03;5052489;28;20076;-77
2022/07/13 04:25:58;;;;;;;5.28;3.55;;;;;;;19.86;78.45;102051.25;5050993;28;20353;-79
2022/07/13 04:28:23;;;;;;;8.45;3.45;;;;;;;19.95;78.05;102043.97;5052992;28;20142;-78
2022/07/13 04:30:49;;;;;;;4.93;3.33;;;;;;;20.02;76.26;102039.56;5052355;28;20115;-78
2022/07/13 04:33:15;;;;;;;9.93;3.20;;;;;;;20.12;75.61;102039.38;5052283;28;20338;-77
2022/07/13 04:35:40;;;;;;;8.45;2.78;;;;;;;20.20;75.08;102042.06;5052492;28;20485;-78
2022/07/13 04:38:06;;;;;;;5.00;3.40;;;;;;;20.25;75.03;102042.38;5034332;28;20048;-79
2022/07/13 04:40:31;;;;;;;6.22;3.03;;;;;;;20.28;74.70;102047.44;5051971;28;20037;-80
2022/07/13 04:42:57;;;;;;;4.63;2.55;;;;;;;20.31;74.79;102038.13;5050435;28;20102;-78
2022/07/13 04:45:22;;;;;;;10.32;2.78;;;;;;;20.32;75.40;102040.66;5051887;28;20033;-81
2022/07/13 04:47:48;;;;;;;6.18;2.78;;;;;;;20.33;75.52;102036.09;5052338;28;20045;-79
2022/07/13 04:50:14;;;;;;;6.97;3.42;;;;;;;20.32;76.48;102039.81;5052115;28;20437;-78
2022/07/13 04:52:39;;;;;;;9.65;2.50;;;;;;;20.30;76.73;102033.75;5052258;28;20033;-79
2022/07/13 04:55:06;;;;;;;5.13;2.88;;;;;;;20.28;77.37;102039.31;5050614;28;20033;-79
2022/07/13 04:57:32;;;;;;;4.22;3.08;;;;;;;20.26;77.66;102041.38;5051846;28;20051;-79
2022/07/13 04:59:57;;;;;;;8.90;2.60;;;;;;;20.29;77.29;102042.84;5052064;28;20036;-80
2022/07/13 05:02:22;;;;;;;4.78;3.08;;;;;;;20.34;77.76;102054.00;5033919;28;20183;-80
2022/07/13 05:04:48;;;;;;;8.80;2.88;;;;;;;20.35;78.01;102051.13;5050120;28;20116;-80
2022/07/13 05:07:13;;;;;;;6.95;2.75;;;;;;;20.36;79.33;102042.00;5050579;28;20029;-80
2022/07/13 05:09:39;;;;;;;6.10;3.08;;;;;;;20.36;79.62;102044.72;5050135;28;20432;-80
2022/07/13 05:12:04;;;;;;;3.25;2.92;;;;;;;20.39;79.26;102044.34;5051382;28;20146;-82
2022/07/13 05:14:30;;;;;;;7.60;2.92;;;;;;;20.44;80.55;102041.13;5051743;28;20028;-80
2022/07/13 05:16:55;;;;;;;8.85;3.75;;;;;;;20.49;80.38;102054.94;5051261;28;20397;-81
2022/07/13 05:19:21;;;;;;;6.40;3.05;;;;;;;20.56;81.09;102049.69;5051207;28;20422;-81
2022/07/13 05:21:46;;;;;;;5.75;2.85;;;;;;;20.64;80.36;102046.94;5051407;28;20469;-80
2022/07/13 05:24:11;;;;;;;5.05;2.90;;;;;;;20.69;80.84;102049.13;5051569;28;20365;-81
2022/07/13 05:26:37;;;;;;;5.82;2.95;;;;;;;20.70;80.94;102048.97;5051670;28;20377;-81
2022/07/13 05:29:04;;;;;;;6.50;2.90;;;;;;;20.73;80.38;102050.47;5051920;28;20333;-82
2022/07/13 05:31:30;;;;;;;4.85;3.15;;;;;;;20.75;80.74;102053.84;5052049;28;20086;-82
2022/07/13 05:33:55;;;;;;;5.93;2.92;;;;;;;20.76;80.82;102042.00;5051660;28;20033;-81
2022/07/13 05:36:21;;;;;;;6.88;3.35;;;;;;;20.77;81.43;102044.53;5049595;28;20037;-80
2022/07/13 05:38:46;;;;;;;4.60;3.42;;;;;;;20.76;81.66;102053.66;5050670;28;20075;-78
2022/07/13 05:41:11;;;;;;;5.63;3.60;;;;;;;20.73;81.77;102051.31;5051304;28;20384;-77
2022/07/13 05:43:38;;;;;;;7.60;3.50;;;;;;;20.71;82.51;102064.19;5050608;28;20061;-81
2022/07/13 05:46:04;;;;;;;5.65;3.50;;;;;;;20.71;82.25;102063.34;5050912;28;20068;-78
2022/07/13 05:48:29;;;;;;;5.38;3.70;;;;;;;20.71;82.52;102060.63;5051004;28;20127;-78
2022/07/13 05:50:55;;;;;;;6.43;3.88;;;;;;;20.74;82.99;102068.41;5050521;28;20102;-77
2022/07/13 05:53:20;;;;;;;6.70;3.40;;;;;;;20.77;82.99;102076.16;5051165;28;20475;-76
2022/07/13 05:55:46;;;;;;;9.02;3.90;;;;;;;20.80;82.61;102074.97;5050758;28;20029;-75
2022/07/13 05:58:13;;;;;;;4.88;3.53;;;;;;;20.84;82.39;102071.72;5050664;28;20112;-76
2022/07/13 06:00:38;;;;;;;10.98;3.78;;;;;;;20.85;82.35;102064.44;5050937;28;20464;-75
2022/07/13 06:03:03;;;;;;;5.97;3.50;;;;;;;20.91;81.96;102074.56;5050919;28;20037;-78
2022/07/13 06:05:29;;;;;;;8.60;3.67;;;;;;;20.96;81.64;102078.41;5050433;28;20451;-76
2022/07/13 06:07:55;;;;;;;6.78;3.47;;;;;;;21.00;81.78;102064.53;5050888;28;20029;-76
2022/07/13 06:10:21;;;;;;;10.73;4.20;;;;;;;21.03;81.00;102062.28;5050481;28;20037;-79
2022/07/13 06:12:46;;;;;;;7.30;3.47;;;;;;;21.07;82.01;102077.16;5050751;28;20469;-81
2022/07/13 06:15:12;;;;;;;6.57;3.85;;;;;;;21.12;79.92;102077.47;5050189;28;20047;-79
2022/07/13 06:17:37;;;;;;;4.90;3.28;;;;;;;21.26;79.44;102070.44;5050191;28;20437;-74
2022/07/13 06:20:03;;;;;;;10.88;3.20;;;;;;;21.45;79.29;102073.66;5050270;28;20198;-76
2022/07/13 06:22:28;;;;;;;4.97;3.35;;;;;;;21.59;78.11;102064.81;5049037;28;20029;-76
2022/07/13 06:24:54;;;;;;;5.22;3.20;;;;;;;21.74;76.36;102077.53;5050155;28;20097;-76
2022/07/13 06:27:19;;;;;;;3.78;3.10;;;;;;;21.84;77.85;102075.41;5050475;28;20492;-78
2022/07/13 06:29:45;;;;;;;6.38;3.60;;;;;;;22.00;75.99;102071.69;5050447;28;20430;-74
2022/07/13 06:32:10;;;;;;;6.43;3.03;;;;;;;22.17;73.59;102073.19;5050650;28;20029;-72
2022/07/13 06:34:36;;;;;;;7.07;3.15;;;;;;;22.32;72.35;102073.25;5050189;28;20056;-74
2022/07/13 06:37:01;;;;;;;6.43;3.75;;;;;;;22.46;72.65;102068.81;5049952;28;20106;-75
2022/07/13 06:39:26;;;;;;;7.18;2.80;;;;;;;22.58;72.39;102069.19;5050003;28;20327;-74
2022/07/13 06:41:52;;;;;;;7.78;3.05;;;;;;;22.75;72.24;102074.41;5050432;28;20036;-75
2022/07/13 06:44:17;;;;;;;10.77;2.97;;;;;;;22.89;70.60;102074.38;5050490;28;20033;-75
2022/07/13 06:46:42;;;;;;;6.57;3.15;;;;;;;22.97;69.65;102069.84;5049980;28;20061;-75
2022/07/13 06:49:08;;;;;;;9.60;2.80;;;;;;;23.02;69.99;102072.81;5050675;28;20490;-74
2022/07/13 06:51:33;;;;;;;4.07;2.67;;;;;;;23.12;70.00;102075.28;5050664;28;20115;-77
2022/07/13 06:53:58;;;;;;;7.47;3.22;;;;;;;23.14;67.64;102082.19;5050434;28;20120;-79
2022/07/13 06:56:24;;;;;;;7.47;3.63;;;;;;;23.04;68.84;102084.34;5054905;28;20488;-80
2022/07/13 06:58:49;;;;;;;4.97;2.97;;;;;;;22.94;68.44;102086.53;5054603;28;20044;-79
2022/07/13 07:01:15;;;;;;;4.03;3.20;;;;;;;22.84;68.53;102084.97;5054436;28;20430;-78
2022/07/13 07:03:40;;;;;;;8.20;3.42;;;;;;;22.83;68.33;102083.28;5054698;28;20474;-78
2022/07/13 07:06:06;;;;;;;12.63;3.25;;;;;;;22.79;68.71;102083.84;5054053;28;20033;-78
2022/07/13 07:08:31;;;;;;;9.77;3.60;;;;;;;22.74;69.49;102089.84;5054157;28;20123;-78
2022/07/13 07:10:56;;;;;;;9.07;3.25;;;;;;;22.74;68.46;102087.13;5053398;28;20029;-78
2022/07/13 07:13:22;;;;;;;6.00;3.00;;;;;;;22.81;67.90;102093.47;5054160;28;20029;-78
2022/07/13 07:15:47;;;;;;;7.10;3.20;;;;;;;22.89;67.22;102087.94;5052607;28;20441;-78
2022/07/13 07:18:12;;;;;;;5.55;3.10;;;;;;;22.94;67.29;102087.34;5052546;28;20341;-78
2022/07/13 07:20:38;;;;;;;9.65;3.50;;;;;;;22.94;67.64;102081.94;5053984;28;20132;-78
2022/07/13 07:23:03;;;;;;;6.60;2.90;;;;;;;23.05;68.50;102083.31;5053662;28;20037;-78
2022/07/13 07:25:29;;;;;;;5.05;2.97;;;;;;;23.28;68.81;102085.03;5053719;28;20044;-77
2022/07/13 07:27:54;;;;;;;7.57;3.20;;;;;;;23.54;65.51;102079.88;5052652;28;20033;-78
2022/07/13 07:30:20;;;;;;;7.63;3.78;;;;;;;23.81;63.72;102082.81;5053698;28;20539;-78
2022/07/13 07:32:46;;;;;;;4.20;2.78;;;;;;;23.99;62.78;102078.75;5053697;28;20025;-78
2022/07/13 07:35:11;;;;;;;10.75;2.97;;;;;;;24.09;62.89;102080.09;5053284;28;20442;-78
2022/07/13 07:37:39;;;;;;;3.58;2.85;;;;;;;24.31;63.22;102080.00;5053583;28;20041;-78
2022/07/13 07:40:06;;;;;;;6.13;2.78;;;;;;;24.56;61.14;102080.34;5053184;28;20376;-78
2022/07/13 07:42:31;;;;;;;6.38;2.90;;;;;;;24.49;61.14;102068.59;5053841;28;20040;-78
2022/07/13 07:44:57;;;;;;;8.98;3.03;;;;;;;24.55;61.58;102081.38;5052365;28;20453;-79
2022/07/13 07:47:25;;;;;;;8.55;3.38;;;;;;;24.62;59.88;102081.47;5052936;28;20096;-78
2022/07/13 07:49:53;;;;;;;13.13;3.30;;;;;;;24.45;60.35;102083.63;5053410;28;20433;-78
2022/07/13 07:52:19;;;;;;;7.72;3.03;;;;;;;24.38;60.56;102086.34;5053493;28;20140;-78
2022/07/13 07:54:46;;;;;;;5.93;3.60;;;;;;;24.33;60.24;102091.53;5053438;28;20054;-78
2022/07/13 07:57:11;;;;;;;6.57;3.40;;;;;;;24.39;61.88;102093.47;5051987;28;20045;-78
2022/07/13 07:59:36;;;;;;;8.30;3.60;;;;;;;24.44;60.73;102088.25;5051492;28;20044;-78
2022/07/13 08:02:02;;;;;;;8.77;3.70;;;;;;;24.38;60.74;102090.91;5051602;28;20071;-79
2022/07/13 08:04:27;;;;;;;5.72;3.50;;;;;;;24.34;60.91;102093.22;5053149;28;20049;-78
2022/07/13 08:06:53;;;;;;;8.27;3.95;;;;;;;24.25;60.63;102095.25;5051576;28;20381;-77
2022/07/13 08:09:18;;;;;;;7.80;3.70;;;;;;;24.19;60.54;102098.78;5052607;28;20033;-77
2022/07/13 08:11:43;;;;;;;7.57;3.67;;;;;;;24.31;60.80;102098.22;5034841;28;20041;-77
2022/07/13 08:14:09;;;;;;;5.50;3.53;;;;;;;24.35;60.80;102097.63;5052629;28;20037;-77
2022/07/13 08:16:35;;;;;;;6.57;3.58;;;;;;;24.35;60.41;102092.19;5053399;28;20029;-78
2022/07/13 08:19:00;;;;;;;5.70;3.65;;;;;;;24.50;61.01;102100.22;5052498;28;20025;-78
2022/07/13 08:21:26;;;;;;;7.53;3.63;;;;;;;24.60;60.53;102097.13;5053343;28;20033;-77
2022/07/13 08:23:51;;;;;;;7.60;3.70;;;;;;;24.73;59.74;102097.19;5051396;28;20029;-78
2022/07/13 08:26:22;;;;;;;7.25;4.20;;;;;;;24.68;59.26;102091.53;5052530;28;20445;-78
2022/07/13 08:28:47;;;;;;;;;;;;;;;24.65;60.66;102086.50;5053335;28;20538;-78
2022/07/13 08:31:13;;;;;;;10.25;3.85;;;;;;;24.79;59.71;102096.38;5052408;28;20023;-78
2022/07/13 08:39:09;;;;;;;8.25;3.47;;;;;;;24.80;59.76;102097.22;5052495;28;20499;-78
2022/07/13 08:41:35;;;;;;;5.93;3.75;;;;;;;25.01;60.21;102107.13;5051188;28;20381;-79
2022/07/13 08:44:01;;;;;;;8.27;4.20;;;;;;;25.43;57.46;102105.16;5052570;28;20094;-78
2022/07/13 08:46:27;;;;;;;8.20;3.88;;;;;;;25.54;55.97;102102.84;5052405;28;20135;-77
2022/07/13 08:48:54;;;;;;;6.90;3.67;;;;;;;25.65;55.14;102100.34;5052451;28;20108;-78
2022/07/13 08:51:21;;;;;;;7.45;3.55;;;;;;;26.09;54.35;102095.31;5052003;28;20029;-77
2022/07/13 08:53:48;;;;;;;7.80;3.53;;;;;;;26.47;52.65;102093.72;5052069;28;20052;-77
2022/07/13 08:56:14;;;;;;;7.80;3.65;;;;;;;27.06;50.47;102084.44;5052603;28;20032;-78
2022/07/13 08:58:39;;;;;;;7.13;3.60;;;;;;;27.86;48.83;102093.16;5052477;28;20025;-78
2022/07/13 09:01:07;;;;;;;6.15;3.60;;;;;;;28.36;47.59;102090.31;5050544;28;20433;-79
2022/07/13 09:03:34;;;;;;;8.82;3.75;;;;;;;28.66;45.16;102095.91;5050694;28;20041;-77
2022/07/13 09:05:59;;;;;;;6.10;3.28;;;;;;;29.29;45.22;102092.91;5050673;28;20143;-78
2022/07/13 09:08:24;;;;;;;7.85;3.35;;;;;;;29.61;40.71;102096.19;5052190;28;20056;-78
2022/07/13 09:10:52;;;;;;;6.65;3.22;;;;;;;29.99;41.92;102089.47;5052121;28;20103;-78
2022/07/13 09:13:38;;;;;;;10.32;3.70;;;;;;;30.66;40.25;102099.09;5050196;28;20128;-79
2022/07/13 09:16:17;;;;;;;10.35;3.38;;;;;;;31.47;39.55;102101.72;5051754;28;20024;-78
2022/07/13 09:18:44;;;;;;;7.53;3.03;;;;;;;32.05;37.68;102104.25;5050033;28;20397;-78
2022/07/13 09:21:09;;;;;;;11.10;3.40;;;;;;;32.72;36.16;102107.94;5051362;28;20033;-78
2022/07/13 09:23:35;;;;;;;5.78;3.10;;;;;;;32.53;35.68;102112.94;5051804;28;20171;-77
2022/07/13 09:26:00;;;;;;;5.70;3.40;;;;;;;32.63;36.65;102110.28;5051265;28;20126;-77
2022/07/13 09:28:26;;;;;;;8.18;3.30;;;;;;;32.68;36.25;102112.31;5050405;28;20460;-78
2022/07/13 09:30:51;;;;;;;6.07;3.90;;;;;;;32.60;35.62;102110.78;5051836;28;20032;-78
2022/07/13 09:33:36;;;;;;;5.03;3.35;;;;;;;32.68;35.38;102115.88;5051979;28;20062;-77
2022/07/13 09:36:11;;;;;;;8.35;3.60;;;;;;;32.91;36.49;102115.88;5051400;28;20167;-80
2022/07/13 09:38:39;;;;;;;5.53;3.50;;;;;;;32.82;35.87;102115.50;5051123;28;20025;-79
2022/07/13 09:41:25;;;;;;;5.90;3.63;;;;;;;32.43;37.03;102119.13;5033407;28;20457;-78
2022/07/13 09:47:03;;;;;;;5.45;3.50;;;;;;;30.79;38.92;102119.16;5050753;28;20079;-79
2022/07/13 09:49:41;;;;;;;5.40;3.38;;;;;;;30.92;38.65;102125.19;5051389;28;20123;-78
2022/07/13 09:52:11;;;;;;;3.97;3.50;;;;;;;30.77;38.51;102117.47;5051314;28;20032;-78
2022/07/13 09:54:39;;;;;;;5.75;3.78;;;;;;;30.19;39.71;102116.50;5051362;28;20056;-78
2022/07/13 09:57:10;;;;;;;6.25;3.70;;;;;;;29.88;40.24;102115.78;5051117;28;20036;-78
2022/07/13 09:59:37;;;;;;;7.20;3.58;;;;;;;30.02;40.16;102119.16;5050431;28;20040;-78
2022/07/13 10:02:04;;;;;;;8.32;3.30;;;;;;;30.07;41.39;102115.69;5050698;28;20060;-78
2022/07/13 10:04:32;;;;;;;8.25;3.53;;;;;;;29.83;41.53;102112.94;5050778;28;20060;-79
2022/07/13 10:06:58;;;;;;;5.72;3.05;;;;;;;29.78;42.09;102118.25;5050883;28;20045;-79
2022/07/13 10:09:28;;;;;;;6.50;3.05;;;;;;;30.01;41.68;102120.22;5050921;28;20123;-79
2022/07/13 10:11:53;;;;;;;10.63;3.42;;;;;;;29.73;40.83;102126.38;5051144;28;20450;-79
2022/07/13 10:14:19;;;;;;;5.93;3.03;;;;;;;29.54;41.87;102128.38;5051470;28;20044;-78
2022/07/13 10:16:46;;;;;;;9.05;2.88;;;;;;;29.61;41.79;102131.03;5050653;28;20045;-78
2022/07/13 10:19:12;;;;;;;4.95;2.63;;;;;;;29.86;40.94;102128.91;5050858;28;20061;-78
2022/07/13 10:22:09;;;;;;;6.75;3.20;;;;;;;30.03;40.18;102134.53;5050568;28;20333;-79
2022/07/13 10:24:35;;;;;;;5.13;2.70;;;;;;;31.21;37.04;102138.94;5050787;28;20457;-79
2022/07/13 10:27:22;;;;;;;6.93;2.70;;;;;;;31.79;36.94;102149.84;5050836;28;20378;-79
2022/07/13 10:29:50;;;;;;;7.57;3.03;;;;;;;31.73;36.75;102159.09;5048795;28;20025;-79
2022/07/13 10:32:21;;;;;;;6.18;2.97;;;;;;;30.75;37.52;102157.25;5050838;28;20040;-78
2022/07/13 10:35:01;;;;;;;5.32;3.00;;;;;;;30.51;38.42;102171.03;5050828;28;20029;-78
2022/07/13 10:37:27;;;;;;;6.95;3.20;;;;;;;29.97;40.18;102160.16;5050699;28;20167;-77
2022/07/13 10:40:13;;;;;;;11.18;3.45;;;;;;;29.66;41.82;102164.03;5050618;28;20075;-76
2022/07/13 10:43:04;;;;;;;5.53;3.40;;;;;;;30.04;40.91;102162.81;5050304;28;20178;-77
2022/07/13 10:45:33;;;;;;;15.90;3.83;;;;;;;30.39;40.37;102165.50;5047647;28;20458;-77
2022/07/13 10:48:04;;;;;;;8.43;3.50;;;;;;;30.61;39.60;102158.63;5050091;28;20079;-76
2022/07/13 10:50:36;;;;;;;10.30;3.80;;;;;;;30.49;39.03;102166.88;5050470;28;20175;-77
2022/07/13 10:53:01;;;;;;;8.70;3.50;;;;;;;30.61;40.55;102169.59;5050429;28;20053;-77
2022/07/13 10:55:32;;;;;;;12.15;3.60;;;;;;;31.49;39.85;102156.47;5049905;28;20114;-76
2022/07/13 10:57:57;;;;;;;;;;;;;;;31.54;40.21;102161.22;5050562;28;20064;-76
2022/07/13 11:00:38;;;;;;;7.57;3.20;;;;;;;31.72;38.75;102157.44;5050017;28;20302;-77
2022/07/13 11:03:06;;;;;;;4.53;2.90;;;;;;;31.68;38.42;102168.09;5050397;28;20452;-77
2022/07/13 11:05:36;;;;;;;7.13;3.20;;;;;;;31.11;39.45;102174.47;5050492;28;20033;-77
2022/07/13 11:08:14;;;;;;;6.68;3.08;;;;;;;30.48;40.17;102166.00;5050384;28;20052;-77
2022/07/13 11:10:40;;;;;;;8.05;3.20;;;;;;;29.85;42.28;102170.31;5050226;28;20115;-77
2022/07/13 11:13:10;;;;;;;7.00;3.35;;;;;;;29.24;42.87;102177.75;5050327;28;20060;-76
2022/07/13 11:15:44;;;;;;;8.25;3.50;;;;;;;28.79;45.00;102190.72;5050322;28;20128;-76
2022/07/13 11:18:24;;;;;;;9.80;3.30;;;;;;;28.55;44.79;102192.44;5050017;28;20131;-76
2022/07/13 11:21:01;;;;;;;12.25;3.60;;;;;;;28.48;46.13;102197.13;5050442;28;20062;-76
2022/07/13 11:26:37;;;;;;;11.43;3.80;;;;;;;28.32;45.77;102199.41;5050158;28;20048;-76
2022/07/13 11:29:40;;;;;;;8.73;4.00;;;;;;;28.10;46.82;102200.88;5050131;28;20418;-76
2022/07/13 11:32:06;;;;;;;6.47;3.45;;;;;;;28.09;47.00;102196.47;5050494;28;20029;-76
2022/07/13 11:34:32;;;;;;;7.53;3.63;;;;;;;28.10;47.02;102204.44;5050147;28;20025;-76